Latest Weather Observations for Roseworthy

IDS60801

Issued at 8:05 pm CST Monday 21 April 2014 (issued every 30 minutes, with the page automatically refreshed every 10 minutes)

About weather observations | Map of weather stations | Latest weather observations for SA | Other Formats
Station Details ID: 023122 Name: ROSEWORTHY AWS Lat: -34.51 Lon: 138.68 Height: 65.0 m
Data from the previous 72 hours. | See also: Recent months at Roseworthy
Date/Time
CST
Temp
°C
App
Temp
°C
Dew
Point
Rel
Hum
%
Delta-T
°C
Wind Press
QNH
hPa
Press
MSL
hPa
Rain
since 9 am
mm
Dir
 
Spd
km/h
Gust
km/h
Spd
kts
Gust
kts
21/08:00pm 23.6 17.3 5.5 31 9.2 N 28 33 15 18 1011.0 - 0.0
21/07:30pm 23.8 17.6 6.1 32 9.1 N 28 33 15 18 1011.1 - 0.0
21/07:00pm 23.3 18.0 6.6 34 8.6 N 24 30 13 16 1011.1 - 0.0
21/06:30pm 23.4 18.9 7.1 35 8.5 N 20 24 11 13 1011.0 - 0.0
21/06:00pm 24.2 19.2 6.5 32 9.2 N 22 26 12 14 1010.9 1010.8 0.0
21/05:30pm 25.7 19.2 6.3 29 10.1 N 30 35 16 19 1010.8 - 0.0
21/05:00pm 26.5 19.6 6.5 28 10.5 NNW 32 44 17 24 1010.8 - 0.0
21/04:30pm 27.2 18.9 6.0 26 11.1 NNW 39 50 21 27 1010.8 - 0.0
21/04:00pm 28.2 19.6 6.3 25 11.6 NNW 41 50 22 27 1010.9 - 0.0
21/03:30pm 28.3 19.7 6.4 25 11.6 NNW 41 52 22 28 1011.0 - 0.0
21/03:00pm 28.9 20.3 6.3 24 12.0 NNW 41 52 22 28 1011.1 1011.0 0.0
21/02:30pm 28.3 19.2 5.8 24 11.8 NNW 43 52 23 28 1011.2 - 0.0
21/02:00pm 28.7 19.5 5.5 23 12.1 NNW 43 54 23 29 1011.3 - 0.0
21/01:33pm 29.3 20.2 6.0 23 12.3 NNW 43 61 23 33 1011.6 - 0.0
21/01:30pm 29.0 19.3 5.8 23 12.2 NNW 46 61 25 33 1011.6 - 0.0
21/01:00pm 29.3 19.6 6.0 23 12.3 NNW 46 63 25 34 1011.9 - 0.0
21/12:30pm 29.2 20.0 5.3 22 12.5 NNW 43 57 23 31 1012.2 - 0.0
21/12:25pm 29.3 20.4 6.7 24 12.1 NNW 43 61 23 33 1012.3 - 0.0
21/12:00pm 28.8 19.7 6.8 25 11.8 NNW 44 59 24 32 1012.7 1012.6 0.0
21/11:30am 27.3 17.0 6.7 27 10.9 NNW 50 65 27 35 1013.2 - 0.0
21/11:00am 27.4 16.6 6.2 26 11.1 NNW 52 72 28 39 1013.4 - 0.0
21/10:59am 27.4 16.5 5.6 25 11.3 NNW 52 72 28 39 1013.4 - 0.0
21/10:30am 27.1 17.2 6.5 27 10.8 NNW 48 63 26 34 1013.5 - 0.0
21/10:00am 26.2 15.5 6.3 28 10.4 NNW 52 65 28 35 1013.8 - 0.0
21/09:30am 25.8 16.5 5.9 28 10.3 N 44 57 24 31 1013.9 - 0.0
21/09:13am 25.2 18.7 6.4 30 9.8 N 30 50 16 27 1014.0 - 0.0
21/09:00am 23.5 17.0 6.7 34 8.7 N 30 37 16 20 1014.0 1013.9 0.0
21/08:30am 21.0 14.7 7.6 42 6.9 N 30 35 16 19 1014.0 - 0.0
21/08:00am 19.8 13.9 7.5 45 6.3 N 28 35 15 19 1013.8 - 0.0
21/07:30am 18.8 12.5 7.3 47 5.8 N 30 39 16 21 1013.7 - 0.0
21/07:00am 18.8 12.1 7.3 47 5.8 NNE 32 43 17 23 1013.4 - 0.0
21/06:30am 18.8 12.0 6.9 46 6.0 NNE 32 39 17 21 1013.4 - 0.0
21/06:00am 19.1 12.7 6.9 45 6.2 NNE 30 37 16 20 1013.5 1013.4 0.0
21/05:30am 19.7 12.6 6.4 42 6.7 NNE 33 43 18 23 1013.3 - 0.0
21/05:00am 18.9 12.4 6.7 45 6.1 NNE 30 46 16 25 1013.3 - 0.0
21/04:55am 19.2 13.1 6.7 44 6.3 NNE 28 46 15 25 1013.3 - 0.0
21/04:30am 19.1 13.1 6.9 45 6.2 NNE 28 39 15 21 1013.5 - 0.0
21/04:00am 17.4 11.4 6.9 50 5.2 NE 28 35 15 19 1013.5 - 0.0
21/03:30am 17.8 11.7 6.7 48 5.5 NE 28 35 15 19 1014.0 - 0.0
21/03:00am 17.7 12.0 6.9 49 5.4 NE 26 35 14 19 1014.3 1014.3 0.0
21/02:30am 17.6 11.2 7.1 50 5.3 NE 30 35 16 19 1014.5 - 0.0
21/02:00am 17.1 11.6 7.7 54 4.8 NE 26 35 14 19 1015.1 - 0.0
21/01:30am 16.8 10.6 7.7 55 4.6 NE 30 37 16 20 1015.3 - 0.0
21/01:00am 16.4 11.0 7.9 57 4.3 NE 26 33 14 18 1015.4 - 0.0
21/12:30am 16.2 11.9 7.9 58 4.2 NE 20 28 11 15 1015.8 - 0.0
21/12:00am 16.4 11.5 8.6 60 4.0 NE 24 30 13 16 1016.2 1016.2 0.0
 
Date/Time
CST
Temp
°C
App
Temp
°C
Dew
Point
Rel
Hum
%
Delta-T
°C
Wind Press
QNH
hPa
Press
MSL
hPa
Rain
since 9 am
mm
Dir
 
Spd
km/h
Gust
km/h
Spd
kts
Gust
kts
20/11:30pm 16.1 11.7 8.8 62 3.7 NE 22 30 12 16 1016.4 - 0.0
20/11:00pm 15.9 12.2 9.3 65 3.4 ENE 19 22 10 12 1016.9 - 0.0
20/10:30pm 15.2 11.9 9.6 69 2.9 ENE 17 20 9 11 1017.2 - 0.0
20/10:00pm 15.3 11.4 9.4 68 3.1 NE 20 24 11 13 1017.4 - 0.0
20/09:30pm 13.7 11.5 9.2 74 2.3 E 11 13 6 7 1017.4 - 0.0
20/09:00pm 12.9 10.6 9.0 77 2.0 ENE 11 13 6 7 1017.5 1017.5 0.0
20/08:30pm 13.3 11.1 9.2 76 2.1 ENE 11 13 6 7 1017.6 - 0.0
20/08:00pm 14.2 11.6 9.4 73 2.5 NE 13 15 7 8 1017.7 - 0.0
20/07:30pm 14.8 13.4 9.4 70 2.8 ENE 7 9 4 5 1017.8 - 0.0
20/07:00pm 15.4 13.9 9.1 66 3.2 SE 7 7 4 4 1017.7 - 0.0
20/06:30pm 15.2 14.9 8.7 65 3.3 CALM 0 6 0 3 1017.4 - 0.0
20/06:00pm 18.3 16.7 8.0 51 5.3 SSE 6 9 3 5 1017.1 1017.1 0.0
20/05:30pm 19.6 17.8 8.0 47 6.0 SE 7 7 4 4 1016.8 - 0.0
20/05:00pm 20.5 18.1 6.8 41 7.0 S 9 11 5 6 1017.0 - 0.0
20/04:30pm 20.8 18.3 6.7 40 7.2 S 9 13 5 7 1017.0 - 0.0
20/04:00pm 21.6 18.8 7.1 39 7.5 SSW 11 17 6 9 1016.8 - 0.0
20/03:30pm 21.7 18.6 7.2 39 7.5 SW 13 19 7 10 1016.8 - 0.0
20/03:00pm 22.8 20.2 7.8 38 7.9 SSW 11 26 6 14 1016.7 1016.7 0.0
20/02:30pm 22.5 19.0 7.1 37 8.0 WSW 15 20 8 11 1016.6 - 0.0
20/02:00pm 22.4 20.9 6.6 36 8.1 SSW 4 11 2 6 1016.6 - 0.0
20/01:30pm 22.3 20.3 6.9 37 7.9 W 7 13 4 7 1016.8 - 0.0
20/01:00pm 21.7 19.2 6.4 37 7.8 SSE 9 17 5 9 1017.0 - 0.0
20/12:30pm 21.2 19.3 6.7 39 7.4 WSW 6 15 3 8 1017.4 - 0.0
20/12:00pm 20.8 18.6 6.4 39 7.3 W 7 11 4 6 1017.7 1017.7 0.0
20/11:30am 20.3 18.2 6.6 41 6.9 SE 7 11 4 6 1018.1 - 0.0
20/11:00am 20.3 18.5 7.0 42 6.8 NNE 6 11 3 6 1018.6 - 0.0
20/10:30am 19.3 17.5 8.0 48 5.8 SSE 7 11 4 6 1018.8 - 0.0
20/10:00am 18.6 17.3 7.7 49 5.6 W 4 9 2 5 1018.9 - 0.0
20/09:30am 17.6 16.3 9.2 58 4.4 WNW 6 9 3 5 1019.1 - 0.0
20/09:00am 16.8 15.4 9.7 63 3.7 NE 7 9 4 5 1019.0 1019.0 0.0
20/08:30am 14.9 12.8 8.4 65 3.3 NE 9 11 5 6 1018.9 - 0.0
20/08:00am 13.1 11.1 8.6 74 2.3 NE 9 11 5 6 1018.7 - 0.0
20/07:30am 10.1 7.5 7.7 85 1.2 ENE 11 13 6 7 1018.4 - 0.0
20/07:00am 7.9 4.9 6.0 88 0.9 ENE 11 13 6 7 1018.2 - 0.0
20/06:30am 7.3 3.8 5.4 88 0.8 NE 13 15 7 8 1017.7 - 0.0
20/06:00am 7.6 4.1 5.6 87 0.9 NE 13 15 7 8 1017.6 1017.6 0.0
20/05:30am 6.7 3.8 4.9 88 0.8 ENE 9 11 5 6 1017.5 - 0.0
20/05:00am 7.2 4.4 5.3 88 0.8 E 9 9 5 5 1017.4 - 0.0
20/04:30am 8.1 6.2 7.5 96 0.3 ESE 7 9 4 5 1017.2 - 0.0
20/04:00am 9.0 8.7 8.7 98 0.1 CALM 0 0 0 0 1017.1 - 0.0
20/03:30am 9.6 9.3 8.7 94 0.4 CALM 0 0 0 0 1017.1 - 0.0
20/03:00am 10.2 8.5 8.3 88 0.9 NNE 7 9 4 5 1016.9 1016.9 0.0
20/02:30am 10.0 7.7 7.3 83 1.3 NNE 9 11 5 6 1017.0 - 0.0
20/02:00am 10.9 8.3 7.8 81 1.5 NE 11 13 6 7 1017.1 - 0.0
20/01:30am 10.7 8.3 7.2 79 1.7 NNE 9 13 5 7 1017.3 - 0.0
20/01:00am 9.0 6.4 6.1 82 1.3 ENE 9 11 5 6 1017.5 - 0.0
20/12:30am 9.0 6.6 7.0 87 0.9 E 9 13 5 7 1017.6 - 0.0
20/12:00am 10.4 8.2 6.4 76 1.9 SE 7 11 4 6 1017.6 1017.6 0.0
 
Date/Time
CST
Temp
°C
App
Temp
°C
Dew
Point
Rel
Hum
%
Delta-T
°C
Wind Press
QNH
hPa
Press
MSL
hPa
Rain
since 9 am
mm
Dir
 
Spd
km/h
Gust
km/h
Spd
kts
Gust
kts
19/11:30pm 11.2 9.2 7.1 76 2.0 E 7 11 4 6 1017.6 - 0.0
19/11:00pm 11.5 9.1 6.8 73 2.2 E 9 13 5 7 1017.8 - 0.0
19/10:30pm 11.2 8.4 6.9 75 2.1 E 11 13 6 7 1017.9 - 0.0
19/10:00pm 10.6 6.9 4.7 67 2.7 E 13 15 7 8 1018.4 - 0.0
19/09:30pm 9.5 6.1 1.9 59 3.2 ESE 9 13 5 7 1018.4 - 0.0
19/09:00pm 8.9 7.0 0.6 56 3.3 CALM 0 0 0 0 1018.3 1018.3 0.0
19/08:30pm 9.3 7.4 0.7 55 3.5 CALM 0 0 0 0 1018.4 - 0.0
19/08:00pm 9.7 8.1 2.3 60 3.1 CALM 0 0 0 0 1018.3 - 0.0
19/07:30pm 10.8 8.6 3.6 61 3.2 ESE 4 9 2 5 1018.4 - 0.0
19/07:00pm 13.1 11.2 6.5 64 3.2 SSE 6 7 3 4 1018.4 - 0.0
19/06:30pm 13.9 11.4 6.7 62 3.5 SSW 9 11 5 6 1018.2 - 0.0
19/06:00pm 15.1 12.6 6.4 56 4.2 SSW 9 13 5 7 1018.2 1018.2 0.0
19/05:30pm 16.3 11.8 6.2 51 4.9 SW 19 24 10 13 1018.0 - 0.0
19/05:00pm 16.9 12.4 6.1 49 5.3 SSW 19 26 10 14 1017.8 - 0.0
19/04:30pm 19.1 15.8 4.5 38 7.0 SSW 11 17 6 9 1017.8 - 0.0
19/04:00pm 19.0 15.5 3.6 36 7.3 S 11 15 6 8 1018.0 - 0.0
19/03:30pm 19.0 16.3 3.6 36 7.3 SSW 7 13 4 7 1018.0 - 0.0
19/03:00pm 19.0 15.5 3.6 36 7.3 ENE 11 15 6 8 1018.3 1018.3 0.0
19/02:30pm 18.9 15.6 2.3 33 7.6 E 9 15 5 8 1018.5 - 0.0
19/02:00pm 18.6 15.5 3.6 37 7.1 SE 9 17 5 9 1018.6 - 0.0
19/01:30pm 18.6 15.1 3.6 37 7.1 NNE 11 17 6 9 1019.1 - 0.0
19/01:00pm 17.4 13.9 3.3 39 6.5 NNE 11 20 6 11 1019.8 - 0.0
19/12:30pm 17.5 14.4 3.8 40 6.4 NNW 9 19 5 10 1020.3 - 0.0
19/12:00pm 17.6 14.1 3.5 39 6.5 N 11 17 6 9 1021.1 1021.1 0.0
19/11:30am 17.6 12.8 4.5 42 6.2 NE 19 26 10 14 1021.5 - 0.0
19/11:00am 17.6 13.5 4.5 42 6.2 ENE 15 26 8 14 1021.9 - 0.0
19/10:30am 16.5 11.9 3.9 43 5.9 ENE 17 32 9 17 1022.2 - 0.0
19/10:00am 15.9 11.4 6.1 52 4.8 NE 19 22 10 12 1022.6 - 0.0
19/09:30am 15.0 10.7 7.1 59 3.9 NE 19 22 10 12 1023.0 - 0.0
19/09:00am 13.7 10.1 8.3 70 2.7 NE 17 20 9 11 1023.2 1023.2 0.8
19/08:30am 12.6 8.9 8.1 74 2.2 NE 17 20 9 11 1023.0 - 0.8
19/08:00am 11.2 8.3 8.1 81 1.5 NE 13 17 7 9 1022.8 - 0.8
19/07:30am 9.0 5.3 6.4 84 1.2 NE 15 17 8 9 1022.6 - 0.8
19/07:00am 7.7 5.0 5.7 87 0.9 E 9 13 5 7 1022.4 - 0.8
19/06:30am 7.3 5.1 5.1 86 1.0 ENE 6 9 3 5 1022.3 - 0.8
19/06:00am 7.9 4.9 5.9 87 0.9 E 11 15 6 8 1022.2 1022.2 0.8
19/05:30am 7.6 3.8 5.7 88 0.9 NE 15 17 8 9 1021.9 - 0.8
19/05:00am 6.9 3.7 5.2 89 0.8 NNE 11 15 6 8 1021.9 - 0.6
19/04:30am 6.8 3.6 5.1 89 0.7 N 11 13 6 7 1021.8 - 0.6
19/04:00am 6.6 4.3 4.6 87 0.9 E 6 7 3 4 1021.8 - 0.6
19/03:30am 7.4 4.9 5.0 85 1.1 E 7 9 4 5 1021.8 - 0.6
19/03:00am 7.7 4.5 5.3 85 1.1 ENE 11 15 6 8 1021.9 1021.9 0.6
19/02:30am 8.0 4.2 5.6 85 1.1 NE 15 17 8 9 1021.9 - 0.6
19/02:00am 7.7 4.2 5.5 86 1.0 ENE 13 15 7 8 1022.3 - 0.6
19/01:30am 7.6 5.2 5.4 86 1.0 ENE 7 11 4 6 1022.6 - 0.6
19/01:00am 7.2 4.4 5.3 88 0.8 NE 9 13 5 7 1022.7 - 0.6
19/12:30am 7.1 3.9 5.3 88 0.8 NE 11 15 6 8 1022.7 - 0.6
19/12:00am 6.7 3.8 4.9 88 0.8 ENE 9 11 5 6 1022.8 1022.8 0.6
 
Date/Time
CST
Temp
°C
App
Temp
°C
Dew
Point
Rel
Hum
%
Delta-T
°C
Wind Press
QNH
hPa
Press
MSL
hPa
Rain
since 9 am
mm
Dir
 
Spd
km/h
Gust
km/h
Spd
kts
Gust
kts
18/11:30pm 7.2 4.0 5.3 88 0.8 ENE 11 11 6 6 1022.9 - 0.6
18/11:00pm 7.2 4.0 5.2 87 0.9 NE 11 11 6 6 1023.0 - 0.6
18/10:30pm 8.3 4.9 6.1 86 1.0 NE 13 15 7 8 1023.2 - 0.6
18/10:00pm 7.3 4.5 5.1 86 1.0 E 9 11 5 6 1023.2 - 0.6
18/09:30pm 8.5 6.2 5.8 83 1.2 ESE 7 9 4 5 1023.2 - 0.6
18/09:00pm 8.5 6.1 5.4 81 1.4 E 7 9 4 5 1023.1 1023.1 0.6
18/08:30pm 9.7 7.0 5.7 76 1.8 ESE 9 11 5 6 1023.0 - 0.6

Other Formats:

Comma delimited format used in spreadsheet applications
http://www.bom.gov.au/fwo/IDS60801/IDS60801.95671.axf

JavaScript Object Notation format (JSON) in row-major order
http://www.bom.gov.au/fwo/IDS60801/IDS60801.95671.json